Time;durP1;ratioP1;P1;durP2;ratioP2;P2;SDS_P1;SDS_P2;PMS_P1;PMS_P2;Temp;Humidity;BMP_temperature;BMP_pressure;BME280_temperature;BME280_humidity;BME280_pressure;Samples;Min_cycle;Max_cycle;Signal;HPM_P1;HPM_P2
2022/07/03 00:01:44;;;;;;;0.20;0.20;;;18.60;99.90;;;;;;6208527;23;20089;-76
2022/07/03 00:04:09;;;;;;;0.20;0.20;;;18.60;99.90;;;;;;6181608;23;20028;-76
2022/07/03 00:06:35;;;;;;;0.20;0.20;;;18.60;99.90;;;;;;6209499;23;20020;-76
2022/07/03 00:09:05;;;;;;;0.20;0.20;;;18.60;99.90;;;;;;6180999;23;20507;-75
2022/07/03 00:11:32;;;;;;;0.20;0.20;;;18.60;99.90;;;;;;6181976;23;20091;-76
2022/07/03 00:13:58;;;;;;;0.10;0.10;;;18.50;99.90;;;;;;6182213;23;20094;-76
2022/07/03 00:16:24;;;;;;;0.20;0.20;;;18.50;99.90;;;;;;6208582;23;20063;-76
2022/07/03 00:18:50;;;;;;;0.13;0.13;;;18.50;99.90;;;;;;6209827;23;20021;-75
2022/07/03 00:21:27;;;;;;;0.20;0.20;;;18.50;99.90;;;;;;6208247;23;20020;-75
2022/07/03 00:24:06;;;;;;;0.20;0.20;;;18.40;99.90;;;;;;6210070;23;20017;-75
2022/07/03 00:26:36;;;;;;;0.20;0.20;;;18.40;99.90;;;;;;6209477;23;20021;-76
2022/07/03 00:29:03;;;;;;;0.20;0.20;;;18.40;99.90;;;;;;6206812;23;20027;-76
2022/07/03 00:31:32;;;;;;;0.20;0.20;;;18.40;99.90;;;;;;6183583;23;20413;-75
2022/07/03 00:33:59;;;;;;;0.20;0.20;;;18.30;99.90;;;;;;6210285;23;20024;-76
2022/07/03 00:36:34;;;;;;;0.20;0.20;;;18.30;99.90;;;;;;6182619;23;20021;-75
2022/07/03 00:39:00;;;;;;;0.20;0.20;;;18.30;99.90;;;;;;6209001;23;20023;-75
2022/07/03 00:41:28;;;;;;;0.10;0.10;;;18.30;99.90;;;;;;6209359;23;20586;-76
2022/07/03 00:43:54;;;;;;;0.20;0.20;;;18.20;99.90;;;;;;6207645;23;20095;-76
2022/07/03 00:46:23;;;;;;;0.20;0.20;;;18.20;99.90;;;;;;6209995;23;20009;-76
2022/07/03 00:48:50;;;;;;;0.20;0.20;;;18.10;99.90;;;;;;6210215;23;20015;-76
2022/07/03 00:51:21;;;;;;;0.20;0.20;;;18.00;99.90;;;;;;6209409;23;20067;-76
2022/07/03 00:53:53;;;;;;;0.10;0.10;;;18.10;99.90;;;;;;6210556;23;20044;-76
2022/07/03 00:56:23;;;;;;;0.20;0.20;;;18.10;99.90;;;;;;6208941;23;20012;-75
2022/07/03 00:58:55;;;;;;;0.20;0.20;;;18.10;99.90;;;;;;6208902;23;20012;-76
2022/07/03 01:01:24;;;;;;;0.10;0.10;;;18.00;99.90;;;;;;6210337;23;20016;-75
2022/07/03 01:04:14;;;;;;;0.10;0.10;;;18.00;99.90;;;;;;6208360;23;20500;-75
2022/07/03 01:06:54;;;;;;;0.20;0.20;;;18.00;99.90;;;;;;6210302;23;20024;-76
2022/07/03 01:09:39;;;;;;;0.20;0.20;;;17.90;99.90;;;;;;6210425;23;20277;-76
2022/07/03 01:12:33;;;;;;;0.20;0.20;;;17.90;99.90;;;;;;6209307;23;20023;-76
2022/07/03 01:15:09;;;;;;;0.20;0.20;;;17.90;99.90;;;;;;6108541;23;20021;-76
2022/07/03 01:17:39;;;;;;;0.20;0.20;;;17.90;99.90;;;;;;6173471;23;20024;-76
2022/07/03 01:20:07;;;;;;;0.10;0.10;;;17.90;99.90;;;;;;6209963;23;20024;-76
2022/07/03 01:22:44;;;;;;;0.10;0.10;;;17.80;99.90;;;;;;6209884;23;20095;-75
2022/07/03 01:25:14;;;;;;;0.20;0.20;;;17.70;99.90;;;;;;6209636;23;20008;-76
2022/07/03 01:28:14;;;;;;;0.20;0.20;;;17.70;99.90;;;;;;6209064;23;20438;-75
2022/07/03 01:30:48;;;;;;;0.20;0.20;;;17.70;99.90;;;;;;6210838;23;20019;-76
2022/07/03 01:33:18;;;;;;;0.10;0.10;;;17.70;99.90;;;;;;6182680;23;20096;-76
2022/07/03 01:35:58;;;;;;;0.20;0.20;;;17.60;99.90;;;;;;6211137;23;20021;-76
2022/07/03 01:38:27;;;;;;;0.10;0.10;;;17.60;99.90;;;;;;6180533;23;20027;-76
2022/07/03 01:40:55;;;;;;;0.13;0.13;;;17.60;99.90;;;;;;6209751;23;20028;-75
2022/07/03 01:43:28;;;;;;;0.10;0.10;;;17.60;99.90;;;;;;6208324;23;20017;-76
2022/07/03 01:45:55;;;;;;;0.20;0.20;;;17.60;99.90;;;;;;6208515;23;20134;-76
2022/07/03 01:48:22;;;;;;;0.20;0.20;;;17.60;99.90;;;;;;6207954;23;20017;-74
2022/07/03 01:50:49;;;;;;;0.20;0.20;;;17.50;99.90;;;;;;6208386;23;20084;-74
2022/07/03 01:53:16;;;;;;;0.20;0.20;;;17.50;99.90;;;;;;6207835;23;20433;-75
2022/07/03 01:55:42;;;;;;;0.10;0.10;;;17.50;99.90;;;;;;6209463;23;20008;-74
2022/07/03 01:58:09;;;;;;;0.20;0.20;;;17.40;99.90;;;;;;6208508;23;20024;-74
2022/07/03 02:00:59;;;;;;;0.10;0.10;;;17.40;99.90;;;;;;6209447;23;20376;-75
2022/07/03 02:03:29;;;;;;;0.20;0.20;;;17.30;99.90;;;;;;6209953;23;20028;-74
2022/07/03 02:06:08;;;;;;;0.10;0.10;;;17.40;99.90;;;;;;6207645;23;20036;-75
2022/07/03 02:08:37;;;;;;;0.20;0.20;;;17.30;99.90;;;;;;6181399;23;20021;-75
2022/07/03 02:11:18;;;;;;;0.20;0.20;;;17.30;99.90;;;;;;6182476;23;20074;-75
2022/07/03 02:14:07;;;;;;;0.20;0.20;;;17.30;99.90;;;;;;6207125;23;20021;-75
2022/07/03 02:16:57;;;;;;;0.15;0.15;;;17.30;99.90;;;;;;6208179;23;20031;-74
2022/07/03 02:19:34;;;;;;;0.20;0.20;;;17.20;99.90;;;;;;6181214;23;20047;-74
2022/07/03 02:22:02;;;;;;;0.20;0.20;;;17.20;99.90;;;;;;6206817;23;20478;-74
2022/07/03 02:24:42;;;;;;;0.20;0.20;;;17.20;99.90;;;;;;6207691;23;20608;-74
2022/07/03 02:27:14;;;;;;;0.20;0.20;;;17.10;99.90;;;;;;6210351;23;20012;-75
2022/07/03 02:30:09;;;;;;;0.20;0.20;;;17.10;99.90;;;;;;6206891;23;20047;-74
2022/07/03 02:32:47;;;;;;;0.10;0.10;;;17.00;99.90;;;;;;6173909;23;20023;-74
2022/07/03 02:35:27;;;;;;;0.20;0.20;;;17.00;99.90;;;;;;6178105;23;20441;-74
2022/07/03 02:38:04;;;;;;;0.20;0.20;;;17.00;99.90;;;;;;6207455;23;20051;-74
2022/07/03 02:40:40;;;;;;;0.10;0.10;;;16.90;99.90;;;;;;6209295;23;20020;-74
2022/07/03 02:43:38;;;;;;;0.10;0.10;;;16.90;99.90;;;;;;6207989;23;20370;-74
2022/07/03 02:49:20;;;;;;;0.10;0.10;;;16.70;99.90;;;;;;6207144;23;20021;-75
2022/07/03 02:51:53;;;;;;;0.20;0.20;;;16.70;99.90;;;;;;6182512;23;20016;-74
2022/07/03 02:54:19;;;;;;;0.20;0.20;;;16.70;99.90;;;;;;6208303;23;20266;-74
2022/07/03 02:57:04;;;;;;;0.20;0.20;;;16.60;99.90;;;;;;6208617;23;20019;-74
2022/07/03 02:59:53;;;;;;;0.10;0.10;;;16.60;99.90;;;;;;6207332;23;20052;-74
2022/07/03 03:02:55;;;;;;;0.20;0.20;;;16.60;99.90;;;;;;6211227;23;20120;-74
2022/07/03 03:05:45;;;;;;;0.10;0.10;;;16.50;99.90;;;;;;6210190;23;20020;-74
2022/07/03 03:08:31;;;;;;;0.10;0.10;;;16.60;99.90;;;;;;6209962;23;20009;-74
2022/07/03 03:11:02;;;;;;;0.20;0.20;;;16.50;99.90;;;;;;6210737;23;20137;-74
2022/07/03 03:13:31;;;;;;;0.13;0.13;;;16.50;99.90;;;;;;6209558;23;20020;-74
2022/07/03 03:16:07;;;;;;;0.10;0.10;;;16.50;99.90;;;;;;6211119;23;20027;-74
2022/07/03 03:18:38;;;;;;;0.20;0.20;;;16.50;99.90;;;;;;6181085;23;20649;-74
2022/07/03 03:21:09;;;;;;;0.15;0.15;;;16.50;99.90;;;;;;6210360;23;20453;-74
2022/07/03 03:23:51;;;;;;;0.20;0.20;;;16.50;99.90;;;;;;6182325;23;20175;-74
2022/07/03 03:26:19;;;;;;;0.10;0.10;;;16.50;99.90;;;;;;6184041;23;20035;-74
2022/07/03 03:28:45;;;;;;;0.20;0.20;;;16.50;99.90;;;;;;6208996;23;20012;-74
2022/07/03 03:31:12;;;;;;;0.10;0.10;;;16.40;99.90;;;;;;6209037;23;20464;-74
2022/07/03 03:33:42;;;;;;;0.13;0.13;;;16.40;99.90;;;;;;6184229;23;20020;-74
2022/07/03 03:36:10;;;;;;;0.10;0.10;;;16.40;99.90;;;;;;6209729;23;20075;-74
2022/07/03 03:38:36;;;;;;;0.13;0.13;;;16.40;99.90;;;;;;6207231;23;20757;-75
2022/07/03 03:41:03;;;;;;;0.10;0.10;;;16.40;99.90;;;;;;6182241;23;20382;-74
2022/07/03 03:43:30;;;;;;;0.20;0.20;;;16.40;99.90;;;;;;6181658;23;20025;-74
2022/07/03 03:45:56;;;;;;;0.10;0.10;;;16.50;99.90;;;;;;6210003;23;20146;-75
2022/07/03 03:48:22;;;;;;;0.20;0.20;;;16.50;99.90;;;;;;6210753;23;20020;-74
2022/07/03 03:50:48;;;;;;;0.10;0.10;;;16.40;99.90;;;;;;6210099;23;20017;-74
2022/07/03 03:53:15;;;;;;;0.10;0.10;;;16.50;99.90;;;;;;6208069;23;20016;-74
2022/07/03 03:55:59;;;;;;;0.20;0.20;;;16.50;99.90;;;;;;6184178;23;20028;-74
2022/07/03 03:58:26;;;;;;;0.20;0.20;;;16.50;99.90;;;;;;6208608;23;20336;-75
2022/07/03 04:00:53;;;;;;;0.10;0.10;;;16.50;99.90;;;;;;6209715;23;20027;-74
2022/07/03 04:03:19;;;;;;;0.15;0.15;;;16.50;99.90;;;;;;6210021;23;20425;-74
2022/07/03 04:05:44;;;;;;;0.20;0.20;;;16.50;99.90;;;;;;6181639;23;20047;-74
2022/07/03 04:08:10;;;;;;;0.20;0.20;;;16.50;99.90;;;;;;6208733;23;20119;-74
2022/07/03 04:10:36;;;;;;;0.20;0.20;;;16.50;99.90;;;;;;6210277;23;20016;-74
2022/07/03 04:13:01;;;;;;;0.20;0.20;;;16.50;99.90;;;;;;6206906;23;20031;-74
2022/07/03 04:15:27;;;;;;;0.10;0.10;;;16.40;99.90;;;;;;6183756;23;20028;-74
2022/07/03 04:17:53;;;;;;;0.17;0.17;;;16.50;99.90;;;;;;6211034;23;20044;-74
2022/07/03 04:20:19;;;;;;;0.20;0.20;;;16.50;99.90;;;;;;6210629;23;20013;-74
2022/07/03 04:22:44;;;;;;;0.20;0.20;;;16.40;99.90;;;;;;6209565;23;20088;-74
2022/07/03 04:25:10;;;;;;;0.10;0.10;;;16.50;99.90;;;;;;6209290;23;20706;-74
2022/07/03 04:27:35;;;;;;;0.20;0.20;;;16.50;99.90;;;;;;6210063;23;20020;-74
2022/07/03 04:30:01;;;;;;;0.10;0.10;;;16.50;99.90;;;;;;6207112;23;20024;-74
2022/07/03 04:32:27;;;;;;;0.20;0.20;;;16.40;99.90;;;;;;6211133;23;20012;-74
2022/07/03 04:34:52;;;;;;;0.13;0.13;;;16.40;99.90;;;;;;6208593;23;20364;-74
2022/07/03 04:37:18;;;;;;;0.10;0.10;;;16.50;99.90;;;;;;6183714;23;20016;-74
2022/07/03 04:39:43;;;;;;;0.20;0.20;;;16.50;99.90;;;;;;6208244;23;20103;-74
2022/07/03 04:42:09;;;;;;;0.20;0.20;;;16.50;99.90;;;;;;6208612;23;20024;-74
2022/07/03 04:44:35;;;;;;;0.20;0.20;;;16.60;99.90;;;;;;6209052;23;20027;-74
2022/07/03 04:47:01;;;;;;;0.20;0.20;;;16.70;99.90;;;;;;6182591;23;20100;-74
2022/07/03 04:49:27;;;;;;;0.17;0.17;;;16.60;99.90;;;;;;6208896;23;20091;-74
2022/07/03 04:51:53;;;;;;;0.10;0.10;;;16.70;99.90;;;;;;6183443;23;20017;-74
2022/07/03 04:54:19;;;;;;;0.20;0.20;;;16.60;99.90;;;;;;6208198;23;20111;-74
2022/07/03 04:56:44;;;;;;;0.10;0.10;;;16.70;99.90;;;;;;6209470;23;20151;-75
2022/07/03 04:59:10;;;;;;;0.20;0.20;;;16.80;99.90;;;;;;6208062;23;20017;-74
2022/07/03 05:01:36;;;;;;;0.20;0.20;;;16.70;99.90;;;;;;6208768;23;20079;-75
2022/07/03 05:04:01;;;;;;;0.10;0.10;;;16.80;99.90;;;;;;6208655;23;20091;-75
2022/07/03 05:06:27;;;;;;;0.20;0.20;;;16.90;99.90;;;;;;6209016;23;20030;-74
2022/07/03 05:08:52;;;;;;;0.10;0.10;;;16.90;99.90;;;;;;6209781;23;20024;-74
2022/07/03 05:11:18;;;;;;;0.10;0.10;;;17.00;99.90;;;;;;6209065;23;20017;-74
2022/07/03 05:13:44;;;;;;;0.20;0.20;;;17.00;99.90;;;;;;6182888;23;20107;-75
2022/07/03 05:16:09;;;;;;;0.10;0.10;;;17.10;99.90;;;;;;6209553;23;20019;-74
2022/07/03 05:18:35;;;;;;;0.20;0.20;;;17.20;99.90;;;;;;6208848;23;20020;-75
2022/07/03 05:21:01;;;;;;;0.17;0.17;;;17.20;99.90;;;;;;6209037;23;20052;-74
2022/07/03 05:23:27;;;;;;;0.20;0.20;;;17.30;99.90;;;;;;6207324;23;20021;-74
2022/07/03 05:25:52;;;;;;;0.20;0.20;;;17.30;99.90;;;;;;6210653;23;20389;-75
2022/07/03 05:28:18;;;;;;;0.20;0.20;;;17.30;99.90;;;;;;6208419;23;20023;-74
2022/07/03 05:30:44;;;;;;;0.20;0.20;;;17.50;99.90;;;;;;6209349;23;20052;-74
2022/07/03 05:33:09;;;;;;;0.10;0.10;;;17.50;99.90;;;;;;6210121;23;20142;-74
2022/07/03 05:35:35;;;;;;;0.10;0.10;;;17.60;99.90;;;;;;6183851;23;20511;-75
2022/07/03 05:38:00;;;;;;;0.10;0.10;;;17.60;99.90;;;;;;6207144;23;20159;-75
2022/07/03 05:40:26;;;;;;;0.20;0.20;;;17.70;99.90;;;;;;6210363;23;20017;-75
2022/07/03 05:42:53;;;;;;;0.10;0.10;;;17.70;99.90;;;;;;6208613;23;20087;-74
2022/07/03 05:45:19;;;;;;;0.20;0.20;;;17.80;99.90;;;;;;6209292;23;20019;-75
2022/07/03 05:47:45;;;;;;;0.20;0.20;;;17.90;99.90;;;;;;6209969;23;20102;-75
2022/07/03 05:50:10;;;;;;;0.20;0.20;;;18.00;99.90;;;;;;6208784;23;20024;-74
2022/07/03 05:52:36;;;;;;;0.20;0.20;;;18.10;99.90;;;;;;6207654;23;20330;-75
2022/07/03 05:55:02;;;;;;;0.20;0.20;;;18.20;99.90;;;;;;6182158;23;20333;-74
2022/07/03 05:57:27;;;;;;;0.13;0.13;;;18.30;99.90;;;;;;6210324;23;20020;-75
2022/07/03 05:59:53;;;;;;;0.20;0.20;;;18.40;99.90;;;;;;6208199;23;20071;-75
2022/07/03 06:02:19;;;;;;;0.20;0.20;;;18.50;99.90;;;;;;6209611;23;20104;-75
2022/07/03 06:04:44;;;;;;;0.13;0.13;;;18.60;99.90;;;;;;6182875;23;20016;-75
2022/07/03 06:07:10;;;;;;;0.20;0.20;;;18.60;99.90;;;;;;6207537;23;20318;-74
2022/07/03 06:09:35;;;;;;;0.20;0.20;;;18.70;99.90;;;;;;6209430;23;20017;-74
2022/07/03 06:12:01;;;;;;;0.20;0.20;;;18.70;99.90;;;;;;6210446;23;20040;-75
2022/07/03 06:14:27;;;;;;;0.10;0.10;;;18.70;99.90;;;;;;6207984;23;20024;-75
2022/07/03 06:16:53;;;;;;;0.20;0.20;;;18.80;99.90;;;;;;6209561;23;20012;-74
2022/07/03 06:19:18;;;;;;;0.20;0.20;;;18.80;99.90;;;;;;6182788;23;20021;-75
2022/07/03 06:21:44;;;;;;;0.15;0.15;;;18.90;99.90;;;;;;6209156;23;20076;-76
2022/07/03 06:24:10;;;;;;;0.20;0.20;;;19.00;99.90;;;;;;6182038;23;20008;-75
2022/07/03 06:26:36;;;;;;;0.20;0.20;;;19.00;99.90;;;;;;6210241;23;20098;-75
2022/07/03 06:29:02;;;;;;;0.10;0.10;;;19.00;99.90;;;;;;6207714;23;20341;-75
2022/07/03 06:31:27;;;;;;;0.20;0.20;;;19.20;99.90;;;;;;6208153;23;20024;-75
2022/07/03 06:33:53;;;;;;;0.20;0.20;;;19.20;99.90;;;;;;6183558;23;20025;-75
2022/07/03 06:36:18;;;;;;;0.20;0.20;;;19.30;99.90;;;;;;6185487;23;20554;-75
2022/07/03 06:38:44;;;;;;;0.20;0.20;;;19.30;99.90;;;;;;6183940;23;20523;-75
2022/07/03 06:41:10;;;;;;;0.20;0.20;;;19.30;99.90;;;;;;6209406;23;20024;-75
2022/07/03 06:43:35;;;;;;;0.20;0.20;;;19.30;99.90;;;;;;6209754;23;20408;-75
2022/07/03 06:46:01;;;;;;;0.20;0.20;;;19.30;99.90;;;;;;6183027;23;20012;-75
2022/07/03 06:48:26;;;;;;;0.10;0.10;;;19.30;99.90;;;;;;6182556;23;20051;-75
2022/07/03 06:50:52;;;;;;;0.10;0.10;;;19.40;99.90;;;;;;6185194;23;20021;-75
2022/07/03 06:53:18;;;;;;;0.20;0.20;;;19.40;99.90;;;;;;6210703;23;20473;-75
2022/07/03 06:55:43;;;;;;;0.10;0.10;;;19.60;99.90;;;;;;6184393;23;20048;-75
2022/07/03 06:58:09;;;;;;;0.10;0.10;;;19.50;99.90;;;;;;6181454;23;20111;-75
2022/07/03 07:00:36;;;;;;;0.13;0.13;;;19.60;99.90;;;;;;6183638;23;20473;-75
2022/07/03 07:03:02;;;;;;;0.20;0.20;;;19.60;99.90;;;;;;6210556;23;20091;-75
2022/07/03 07:05:28;;;;;;;0.10;0.10;;;19.60;99.90;;;;;;6211768;23;20090;-75
2022/07/03 07:07:53;;;;;;;0.20;0.20;;;19.60;99.90;;;;;;6211935;23;20021;-74
2022/07/03 07:10:19;;;;;;;0.20;0.20;;;19.60;99.90;;;;;;6210205;23;20110;-74
2022/07/03 07:12:44;;;;;;;0.20;0.20;;;19.60;99.90;;;;;;6208779;23;20017;-75
2022/07/03 07:15:10;;;;;;;0.20;0.20;;;19.60;99.90;;;;;;6211533;23;20456;-73
2022/07/03 07:17:36;;;;;;;0.20;0.20;;;19.60;99.90;;;;;;6183692;23;20642;-73
2022/07/03 07:20:02;;;;;;;0.20;0.20;;;19.60;99.90;;;;;;6211026;23;20016;-74
2022/07/03 07:22:27;;;;;;;0.13;0.13;;;19.70;99.90;;;;;;6211840;23;20039;-74
2022/07/03 07:24:53;;;;;;;0.20;0.20;;;19.70;99.90;;;;;;6183034;23;20100;-74
2022/07/03 07:27:19;;;;;;;0.20;0.20;;;19.80;99.90;;;;;;6211709;23;20503;-74
2022/07/03 07:29:44;;;;;;;0.10;0.10;;;19.90;99.90;;;;;;6209226;23;20016;-74
2022/07/03 07:32:10;;;;;;;0.20;0.20;;;19.90;99.90;;;;;;6183635;23;20431;-74
2022/07/03 07:34:37;;;;;;;0.15;0.15;;;20.00;99.90;;;;;;6210008;23;20089;-74
2022/07/03 07:37:03;;;;;;;0.20;0.20;;;20.00;99.90;;;;;;6211767;23;20082;-74
2022/07/03 07:39:28;;;;;;;0.20;0.20;;;19.90;99.90;;;;;;6180742;23;20445;-73
2022/07/03 07:41:54;;;;;;;0.20;0.20;;;19.90;99.90;;;;;;6210378;23;20091;-73
2022/07/03 07:44:19;;;;;;;0.20;0.20;;;19.90;99.90;;;;;;6208144;23;20016;-74
2022/07/03 07:46:45;;;;;;;0.20;0.20;;;19.90;99.90;;;;;;6184205;23;20017;-73
2022/07/03 07:49:10;;;;;;;0.20;0.20;;;19.90;99.90;;;;;;6183729;23;20021;-74
2022/07/03 07:51:36;;;;;;;0.10;0.10;;;19.90;99.90;;;;;;6209201;23;20048;-74
2022/07/03 07:54:02;;;;;;;0.20;0.20;;;19.90;99.90;;;;;;6182796;23;20017;-74
2022/07/03 07:56:27;;;;;;;0.10;0.10;;;20.00;99.90;;;;;;6211160;23;20012;-73
2022/07/03 07:58:53;;;;;;;0.20;0.20;;;20.00;99.90;;;;;;6181356;23;20078;-73
2022/07/03 08:06:48;;;;;;;0.10;0.10;;;20.10;99.90;;;;;;6209651;23;20502;-73
2022/07/03 08:09:14;;;;;;;0.20;0.20;;;20.10;99.90;;;;;;6209273;23;20079;-73
2022/07/03 08:11:39;;;;;;;0.10;0.10;;;20.10;99.90;;;;;;6182239;23;20115;-74
2022/07/03 08:14:07;;;;;;;0.20;0.20;;;20.10;99.90;;;;;;6203602;23;20176;-73
2022/07/03 08:16:38;;;;;;;0.10;0.10;;;20.20;99.90;;;;;;6209280;23;20418;-73
2022/07/03 08:19:04;;;;;;;;;;;20.20;99.90;;;;;;6208437;23;20021;-73
2022/07/03 08:21:30;;;;;;;0.10;0.10;;;20.20;99.90;;;;;;6208284;23;20042;-74
2022/07/03 08:23:56;;;;;;;0.10;0.10;;;20.30;99.90;;;;;;6209698;23;20023;-73
2022/07/03 08:26:21;;;;;;;0.20;0.20;;;20.30;99.90;;;;;;6209784;23;20070;-74
2022/07/03 08:28:47;;;;;;;0.10;0.10;;;20.30;99.90;;;;;;6209094;23;20027;-72
2022/07/03 08:31:12;;;;;;;0.10;0.10;;;20.40;99.90;;;;;;6209917;23;20107;-72
2022/07/03 08:33:38;;;;;;;0.10;0.10;;;20.40;99.90;;;;;;6182613;23;20016;-72
2022/07/03 08:36:05;;;;;;;0.10;0.10;;;20.40;99.90;;;;;;6208497;23;20083;-72
2022/07/03 08:38:35;;;;;;;0.17;0.17;;;20.40;99.90;;;;;;6181839;23;20012;-72
2022/07/03 08:41:03;;;;;;;0.10;0.10;;;20.50;99.90;;;;;;6207838;23;20043;-72
2022/07/03 08:43:29;;;;;;;0.20;0.20;;;20.50;99.90;;;;;;6181767;23;20016;-72
2022/07/03 08:45:56;;;;;;;0.20;0.20;;;20.50;99.90;;;;;;6184228;23;20035;-72
2022/07/03 08:48:22;;;;;;;0.20;0.20;;;20.60;99.90;;;;;;6209548;23;20112;-72
2022/07/03 08:50:50;;;;;;;0.20;0.20;;;20.60;99.90;;;;;;6210963;23;20103;-76
2022/07/03 08:53:17;;;;;;;0.10;0.10;;;20.60;99.90;;;;;;6183074;23;20019;-73
2022/07/03 08:55:43;;;;;;;0.20;0.20;;;20.60;99.90;;;;;;6208478;23;20056;-73
2022/07/03 08:58:12;;;;;;;0.20;0.20;;;20.70;99.90;;;;;;6182605;23;20020;-73
2022/07/03 09:00:38;;;;;;;0.20;0.20;;;20.70;99.90;;;;;;6208987;23;20513;-72
2022/07/03 09:03:10;;;;;;;0.17;0.17;;;20.80;99.90;;;;;;6206048;23;20060;-73
2022/07/03 09:05:35;;;;;;;0.20;0.20;;;20.70;99.90;;;;;;6181949;23;20396;-73
2022/07/03 09:08:02;;;;;;;0.20;0.20;;;20.90;99.90;;;;;;6181331;23;20054;-72
2022/07/03 09:10:28;;;;;;;0.20;0.20;;;20.90;99.90;;;;;;6182223;23;20080;-73
2022/07/03 09:12:55;;;;;;;0.20;0.20;;;21.00;99.90;;;;;;6180415;23;20507;-73
2022/07/03 09:15:22;;;;;;;0.10;0.10;;;21.00;99.90;;;;;;6204849;23;20021;-74
2022/07/03 09:17:58;;;;;;;0.10;0.10;;;21.00;99.90;;;;;;6209378;23;20024;-73
2022/07/03 09:20:32;;;;;;;0.20;0.20;;;21.00;99.90;;;;;;6210756;23;20023;-74
2022/07/03 09:23:19;;;;;;;0.20;0.20;;;21.00;99.60;;;;;;6181975;23;20407;-73
2022/07/03 09:25:59;;;;;;;0.20;0.20;;;21.00;98.90;;;;;;6211258;23;20318;-73
2022/07/03 09:28:42;;;;;;;0.20;0.20;;;21.00;99.10;;;;;;6182924;23;20016;-73
2022/07/03 09:31:08;;;;;;;0.20;0.20;;;21.10;99.60;;;;;;6182389;23;20020;-73
2022/07/03 09:33:33;;;;;;;0.10;0.10;;;21.10;99.40;;;;;;6210884;23;20026;-73
2022/07/03 09:35:59;;;;;;;0.20;0.20;;;21.10;98.90;;;;;;6184116;23;20040;-73
2022/07/03 09:38:25;;;;;;;0.20;0.20;;;21.10;99.50;;;;;;6182498;23;20112;-74
2022/07/03 09:40:52;;;;;;;0.10;0.10;;;21.20;99.20;;;;;;6209489;23;20012;-74
2022/07/03 09:43:25;;;;;;;0.13;0.13;;;21.20;99.40;;;;;;6209497;23;20087;-74
2022/07/03 09:45:56;;;;;;;0.20;0.20;;;21.30;99.40;;;;;;6210646;23;20096;-74
2022/07/03 09:48:38;;;;;;;0.20;0.20;;;21.30;99.30;;;;;;6210842;23;20087;-74
2022/07/03 09:51:16;;;;;;;0.10;0.10;;;21.40;99.10;;;;;;6209778;23;20796;-73
2022/07/03 09:53:56;;;;;;;0.10;0.10;;;21.50;98.10;;;;;;6183053;23;20009;-74
2022/07/03 09:56:28;;;;;;;0.20;0.20;;;21.60;96.90;;;;;;6209496;23;20099;-73
2022/07/03 09:59:14;;;;;;;0.20;0.20;;;21.60;96.60;;;;;;6182210;23;20016;-73
2022/07/03 10:01:44;;;;;;;0.20;0.20;;;21.60;96.10;;;;;;6183973;23;20024;-73
2022/07/03 10:04:13;;;;;;;0.20;0.20;;;21.60;96.50;;;;;;6210167;23;20021;-74
2022/07/03 10:06:50;;;;;;;0.20;0.20;;;21.60;97.10;;;;;;6210769;23;20480;-73
2022/07/03 10:09:17;;;;;;;0.20;0.20;;;21.70;97.70;;;;;;6184700;23;20017;-74
2022/07/03 10:11:44;;;;;;;0.20;0.20;;;21.80;98.10;;;;;;6212132;23;20016;-74
2022/07/03 10:14:16;;;;;;;0.20;0.20;;;21.90;97.30;;;;;;6210102;23;20334;-74
2022/07/03 10:16:42;;;;;;;0.13;0.13;;;22.00;97.30;;;;;;6184898;23;20147;-74
2022/07/03 10:19:21;;;;;;;0.10;0.10;;;22.10;97.50;;;;;;6184010;23;20353;-73
2022/07/03 10:22:16;;;;;;;0.10;0.10;;;22.20;96.80;;;;;;6184851;23;20074;-74
2022/07/03 10:24:43;;;;;;;0.20;0.20;;;22.20;96.50;;;;;;6184875;23;20088;-74
2022/07/03 10:27:09;;;;;;;0.20;0.20;;;22.20;96.40;;;;;;6184836;23;20119;-74
2022/07/03 10:29:37;;;;;;;0.20;0.20;;;22.20;96.50;;;;;;6210762;23;20016;-74
2022/07/03 10:32:07;;;;;;;0.20;0.20;;;22.30;96.70;;;;;;6185221;23;20101;-74
2022/07/03 10:34:33;;;;;;;0.10;0.10;;;22.30;97.00;;;;;;6184594;23;20349;-74
2022/07/03 10:37:05;;;;;;;0.20;0.20;;;22.50;97.50;;;;;;6185695;23;20016;-74
2022/07/03 10:46:21;;;;;;;0.20;0.20;;;22.70;97.90;;;;;;6208780;23;20091;-73
2022/07/03 10:48:53;;;;;;;0.20;0.20;;;22.80;98.30;;;;;;6182686;23;20094;-74
2022/07/03 10:51:18;;;;;;;0.15;0.15;;;22.80;98.10;;;;;;6209953;23;20048;-74
2022/07/03 10:53:44;;;;;;;0.20;0.20;;;22.90;97.50;;;;;;6182143;23;20335;-74
2022/07/03 10:56:10;;;;;;;0.20;0.20;;;23.00;95.30;;;;;;6182013;23;20023;-74
2022/07/03 10:58:59;;;;;;;0.20;0.20;;;23.00;95.20;;;;;;6211475;23;20021;-76
2022/07/03 11:01:32;;;;;;;0.20;0.20;;;22.90;95.70;;;;;;6211650;23;20641;-73
2022/07/03 11:04:00;;;;;;;0.17;0.17;;;22.90;95.80;;;;;;6185166;23;20057;-73
2022/07/03 11:06:43;;;;;;;0.20;0.20;;;22.90;96.30;;;;;;6212798;23;20020;-74
2022/07/03 11:09:13;;;;;;;0.20;0.20;;;22.90;96.20;;;;;;6211096;23;20044;-73
2022/07/03 11:11:55;;;;;;;0.20;0.20;;;22.90;96.70;;;;;;6185086;23;20392;-74
2022/07/03 11:14:28;;;;;;;0.20;0.20;;;23.00;96.00;;;;;;6211276;23;20048;-74
2022/07/03 11:17:22;;;;;;;0.10;0.10;;;23.00;95.60;;;;;;6211816;23;20018;-74
2022/07/03 11:20:49;;;;;;;0.20;0.20;;;23.00;94.80;;;;;;6185808;23;20639;-74
2022/07/03 11:23:23;;;;;;;0.20;0.20;;;23.10;95.60;;;;;;6196270;23;20023;-74
2022/07/03 11:25:50;;;;;;;0.20;0.20;;;23.20;94.90;;;;;;6212023;23;20016;-73
2022/07/03 11:28:31;;;;;;;0.20;0.20;;;23.30;94.50;;;;;;6184229;23;20016;-74
2022/07/03 11:31:18;;;;;;;;;;;23.40;94.20;;;;;;6172983;23;20466;-73
2022/07/03 11:34:00;;;;;;;0.20;0.20;;;23.50;93.60;;;;;;6211947;23;19916;-73
2022/07/03 11:36:29;;;;;;;0.20;0.20;;;23.40;94.30;;;;;;6184876;23;20020;-74
2022/07/03 11:38:57;;;;;;;0.20;0.20;;;23.40;94.30;;;;;;6210694;23;20039;-74
2022/07/03 11:41:24;;;;;;;0.20;0.20;;;23.30;94.50;;;;;;6185714;23;20359;-74
2022/07/03 11:43:53;;;;;;;0.20;0.20;;;23.50;95.80;;;;;;6210034;23;20012;-73
2022/07/03 11:46:20;;;;;;;0.20;0.20;;;23.50;96.30;;;;;;6212209;23;20024;-73
2022/07/03 11:48:46;;;;;;;0.20;0.20;;;23.70;96.60;;;;;;6185135;23;20017;-74
2022/07/03 11:51:12;;;;;;;0.20;0.20;;;23.70;96.30;;;;;;6211610;23;20031;-73
2022/07/03 11:53:39;;;;;;;0.20;0.20;;;23.70;96.40;;;;;;6210438;23;20438;-74
2022/07/03 11:56:12;;;;;;;0.20;0.20;;;23.70;96.50;;;;;;6212441;23;20012;-73
2022/07/03 11:58:43;;;;;;;0.20;0.20;;;23.70;96.60;;;;;;6210376;23;20012;-74
2022/07/03 12:01:26;;;;;;;0.20;0.20;;;23.70;96.00;;;;;;6211533;23;20119;-73
2022/07/03 12:04:18;;;;;;;0.20;0.20;;;23.60;97.00;;;;;;6212054;23;20024;-73
2022/07/03 12:06:45;;;;;;;0.20;0.20;;;23.50;97.80;;;;;;6211657;23;20079;-73
2022/07/03 12:09:22;;;;;;;0.20;0.20;;;23.50;98.10;;;;;;6210407;23;20047;-73
2022/07/03 12:11:52;;;;;;;0.20;0.20;;;23.50;98.10;;;;;;6184318;23;20071;-73
2022/07/03 12:14:42;;;;;;;0.20;0.20;;;23.50;98.30;;;;;;6183127;23;20032;-74
2022/07/03 12:17:13;;;;;;;0.10;0.10;;;23.30;98.40;;;;;;6210825;23;20020;-73
2022/07/03 12:19:48;;;;;;;0.20;0.20;;;23.30;98.00;;;;;;6181706;23;20468;-74
2022/07/03 12:22:34;;;;;;;0.20;0.20;;;23.20;98.00;;;;;;6183489;23;20349;-73
2022/07/03 12:25:08;;;;;;;0.20;0.20;;;23.10;97.80;;;;;;6210935;23;20074;-74
2022/07/03 12:27:37;;;;;;;0.20;0.20;;;23.10;97.10;;;;;;6210754;23;20071;-74
2022/07/03 12:30:04;;;;;;;0.20;0.20;;;23.10;97.90;;;;;;6183056;23;20017;-74
2022/07/03 12:32:30;;;;;;;0.20;0.20;;;23.20;98.70;;;;;;6210883;23;20052;-74
2022/07/03 12:34:56;;;;;;;0.20;0.20;;;23.40;98.90;;;;;;6211651;23;20017;-73
2022/07/03 12:37:40;;;;;;;0.20;0.20;;;23.60;98.60;;;;;;6183669;23;20016;-74
2022/07/03 12:40:10;;;;;;;0.20;0.20;;;23.70;96.40;;;;;;6182944;23;20164;-74
2022/07/03 12:42:44;;;;;;;0.20;0.20;;;23.70;96.70;;;;;;6209642;23;20020;-74
2022/07/03 12:45:12;;;;;;;0.20;0.20;;;23.70;96.70;;;;;;6210763;23;20448;-75
2022/07/03 12:47:38;;;;;;;0.20;0.20;;;23.70;97.40;;;;;;6182852;23;20020;-74
2022/07/03 12:50:06;;;;;;;0.20;0.20;;;23.70;98.20;;;;;;6211365;23;20016;-74
2022/07/03 12:52:33;;;;;;;0.20;0.20;;;23.90;98.70;;;;;;6208970;23;20473;-74
2022/07/03 12:55:00;;;;;;;0.20;0.20;;;24.00;98.70;;;;;;6208764;23;20108;-75
2022/07/03 13:00:16;;;;;;;0.20;0.20;;;24.30;98.40;;;;;;6211149;23;20032;-74
2022/07/03 13:02:44;;;;;;;0.20;0.20;;;24.30;97.10;;;;;;6183196;23;20019;-75
2022/07/03 13:05:25;;;;;;;0.20;0.20;;;24.20;97.50;;;;;;6183878;23;20023;-74
2022/07/03 13:07:54;;;;;;;0.20;0.20;;;24.20;97.70;;;;;;6182392;23;20028;-74
2022/07/03 13:10:21;;;;;;;0.20;0.20;;;24.20;98.00;;;;;;6210742;23;20024;-74
2022/07/03 13:12:49;;;;;;;0.20;0.20;;;24.20;98.30;;;;;;6208730;23;20465;-75
2022/07/03 13:15:16;;;;;;;0.20;0.20;;;24.30;98.40;;;;;;6183266;23;20084;-73
2022/07/03 13:17:53;;;;;;;0.20;0.20;;;24.30;98.60;;;;;;6210941;23;20084;-73
2022/07/03 13:20:22;;;;;;;0.20;0.20;;;24.30;98.50;;;;;;6211153;23;20040;-72
2022/07/03 13:22:49;;;;;;;0.20;0.20;;;24.30;98.20;;;;;;6182686;23;20104;-72